sensor_id;sensor_type;location;lat;lon;timestamp;pressure;altitude;pressure_sealevel;temperature;humidity
8637;BME280;4356;49.068;8.658;2022-12-22T00:01:12;99251.91;;;17.63;37.39
8637;BME280;4356;49.068;8.658;2022-12-22T00:03:58;99248.50;;;17.67;37.35
8637;BME280;4356;49.068;8.658;2022-12-22T00:06:42;99249.75;;;17.65;36.93
8637;BME280;4356;49.068;8.658;2022-12-22T00:09:26;99257.91;;;17.65;37.45
8637;BME280;4356;49.068;8.658;2022-12-22T00:12:11;99259.59;;;17.66;38.09
8637;BME280;4356;49.068;8.658;2022-12-22T00:14:57;99250.84;;;17.64;37.79
8637;BME280;4356;49.068;8.658;2022-12-22T00:17:42;99252.13;;;17.61;37.82
8637;BME280;4356;49.068;8.658;2022-12-22T00:20:27;99253.78;;;17.62;37.82
8637;BME280;4356;49.068;8.658;2022-12-22T00:23:11;99259.47;;;17.61;37.84
8637;BME280;4356;49.068;8.658;2022-12-22T00:25:56;99260.06;;;17.63;37.10
8637;BME280;4356;49.068;8.658;2022-12-22T00:28:41;99264.91;;;17.61;37.35
8637;BME280;4356;49.068;8.658;2022-12-22T00:31:26;99261.34;;;17.60;37.09
8637;BME280;4356;49.068;8.658;2022-12-22T00:34:13;99262.41;;;17.59;37.17
8637;BME280;4356;49.068;8.658;2022-12-22T00:36:57;99254.94;;;17.55;37.65
8637;BME280;4356;49.068;8.658;2022-12-22T00:39:42;99249.50;;;17.55;37.87
8637;BME280;4356;49.068;8.658;2022-12-22T00:42:26;99252.22;;;17.55;38.12
8637;BME280;4356;49.068;8.658;2022-12-22T00:45:10;99263.94;;;17.55;37.86
8637;BME280;4356;49.068;8.658;2022-12-22T00:47:54;99254.34;;;17.53;38.17
8637;BME280;4356;49.068;8.658;2022-12-22T00:50:39;99245.34;;;17.52;37.75
8637;BME280;4356;49.068;8.658;2022-12-22T00:53:23;99248.69;;;17.54;38.37
8637;BME280;4356;49.068;8.658;2022-12-22T00:56:08;99243.94;;;17.50;38.25
8637;BME280;4356;49.068;8.658;2022-12-22T00:58:54;99238.88;;;17.53;38.42
8637;BME280;4356;49.068;8.658;2022-12-22T01:01:39;99241.38;;;17.55;38.21
8637;BME280;4356;49.068;8.658;2022-12-22T01:04:23;99235.31;;;17.53;38.49
8637;BME280;4356;49.068;8.658;2022-12-22T01:07:13;99216.56;;;17.51;38.96
8637;BME280;4356;49.068;8.658;2022-12-22T01:09:58;99221.97;;;17.51;38.23
8637;BME280;4356;49.068;8.658;2022-12-22T01:12:43;99223.63;;;17.52;38.53
8637;BME280;4356;49.068;8.658;2022-12-22T01:15:29;99213.38;;;17.54;38.86
8637;BME280;4356;49.068;8.658;2022-12-22T01:18:13;99210.66;;;17.54;38.54
8637;BME280;4356;49.068;8.658;2022-12-22T01:20:57;99211.72;;;17.53;38.51
8637;BME280;4356;49.068;8.658;2022-12-22T01:23:41;99201.69;;;17.54;38.37
8637;BME280;4356;49.068;8.658;2022-12-22T01:26:25;99197.53;;;17.51;38.42
8637;BME280;4356;49.068;8.658;2022-12-22T01:29:09;99192.94;;;17.52;38.36
8637;BME280;4356;49.068;8.658;2022-12-22T01:31:54;99195.41;;;17.53;38.54
8637;BME280;4356;49.068;8.658;2022-12-22T01:34:38;99195.91;;;17.50;38.48
8637;BME280;4356;49.068;8.658;2022-12-22T01:37:22;99192.94;;;17.52;38.60
8637;BME280;4356;49.068;8.658;2022-12-22T01:40:25;99187.50;;;17.52;38.91
8637;BME280;4356;49.068;8.658;2022-12-22T01:43:20;99174.16;;;17.50;38.81
8637;BME280;4356;49.068;8.658;2022-12-22T01:46:30;99171.44;;;17.50;38.49
8637;BME280;4356;49.068;8.658;2022-12-22T01:49:17;99167.66;;;17.51;37.96
8637;BME280;4356;49.068;8.658;2022-12-22T01:52:02;99158.31;;;17.47;38.36
8637;BME280;4356;49.068;8.658;2022-12-22T01:54:49;99167.06;;;17.49;38.32
8637;BME280;4356;49.068;8.658;2022-12-22T01:57:33;99161.22;;;17.45;38.30
8637;BME280;4356;49.068;8.658;2022-12-22T02:00:18;99161.03;;;17.47;38.26
8637;BME280;4356;49.068;8.658;2022-12-22T02:03:02;99168.94;;;17.48;37.69
8637;BME280;4356;49.068;8.658;2022-12-22T02:06:06;99159.00;;;17.42;37.72
8637;BME280;4356;49.068;8.658;2022-12-22T02:09:24;99171.25;;;17.45;38.72
8637;BME280;4356;49.068;8.658;2022-12-22T02:12:38;99171.25;;;17.45;37.91
8637;BME280;4356;49.068;8.658;2022-12-22T02:15:35;99163.59;;;17.42;37.39
8637;BME280;4356;49.068;8.658;2022-12-22T02:18:26;99165.22;;;17.43;37.92
8637;BME280;4356;49.068;8.658;2022-12-22T02:21:18;99175.53;;;17.41;38.36
8637;BME280;4356;49.068;8.658;2022-12-22T02:27:00;99161.94;;;17.41;37.75
8637;BME280;4356;49.068;8.658;2022-12-22T02:29:52;99152.59;;;17.37;39.08
8637;BME280;4356;49.068;8.658;2022-12-22T02:32:40;99143.63;;;17.36;38.07
8637;BME280;4356;49.068;8.658;2022-12-22T02:35:24;99142.53;;;17.37;37.97
8637;BME280;4356;49.068;8.658;2022-12-22T02:48:01;99123.16;;;17.34;38.11
8637;BME280;4356;49.068;8.658;2022-12-22T02:50:54;99115.25;;;17.32;38.24
8637;BME280;4356;49.068;8.658;2022-12-22T02:53:41;99116.56;;;17.30;38.46
8637;BME280;4356;49.068;8.658;2022-12-22T02:56:25;99103.56;;;17.32;38.46
8637;BME280;4356;49.068;8.658;2022-12-22T02:59:10;99108.44;;;17.30;38.22
8637;BME280;4356;49.068;8.658;2022-12-22T03:01:55;99107.59;;;17.29;38.53
8637;BME280;4356;49.068;8.658;2022-12-22T03:04:39;99109.00;;;17.32;38.84
8637;BME280;4356;49.068;8.658;2022-12-22T03:07:23;99108.44;;;17.30;38.85
8637;BME280;4356;49.068;8.658;2022-12-22T03:10:08;99104.88;;;17.29;38.91
8637;BME280;4356;49.068;8.658;2022-12-22T03:12:52;99103.81;;;17.30;38.30
8637;BME280;4356;49.068;8.658;2022-12-22T03:15:36;99101.91;;;17.31;38.11
8637;BME280;4356;49.068;8.658;2022-12-22T03:18:20;99088.34;;;17.31;37.95
8637;BME280;4356;49.068;8.658;2022-12-22T03:21:04;99080.44;;;17.29;37.90
8637;BME280;4356;49.068;8.658;2022-12-22T03:23:48;99072.06;;;17.31;37.86
8637;BME280;4356;49.068;8.658;2022-12-22T03:26:32;99062.47;;;17.28;38.26
8637;BME280;4356;49.068;8.658;2022-12-22T03:28:58;99073.34;;;17.28;37.94
8637;BME280;4356;49.068;8.658;2022-12-22T03:31:24;99075.84;;;17.30;38.88
8637;BME280;4356;49.068;8.658;2022-12-22T03:33:49;99069.56;;;17.29;38.83
8637;BME280;4356;49.068;8.658;2022-12-22T03:36:15;99077.47;;;17.31;38.37
8637;BME280;4356;49.068;8.658;2022-12-22T03:38:41;99067.47;;;17.31;38.38
8637;BME280;4356;49.068;8.658;2022-12-22T03:41:06;99063.31;;;17.29;38.62
8637;BME280;4356;49.068;8.658;2022-12-22T03:43:32;99065.53;;;17.32;38.03
8637;BME280;4356;49.068;8.658;2022-12-22T03:46:16;99068.50;;;17.30;37.94
8637;BME280;4356;49.068;8.658;2022-12-22T03:49:02;99069.34;;;17.31;38.14
8637;BME280;4356;49.068;8.658;2022-12-22T03:51:36;99067.47;;;17.31;38.59
8637;BME280;4356;49.068;8.658;2022-12-22T03:54:02;99063.31;;;17.29;38.10
8637;BME280;4356;49.068;8.658;2022-12-22T03:56:28;99058.94;;;17.28;37.96
8637;BME280;4356;49.068;8.658;2022-12-22T03:58:54;99056.84;;;17.30;37.33
8637;BME280;4356;49.068;8.658;2022-12-22T04:01:20;99047.00;;;17.29;37.69
8637;BME280;4356;49.068;8.658;2022-12-22T04:03:47;99039.34;;;17.26;37.88
8637;BME280;4356;49.068;8.658;2022-12-22T04:06:14;99042.66;;;17.28;38.24
8637;BME280;4356;49.068;8.658;2022-12-22T04:08:40;99039.09;;;17.27;38.73
8637;BME280;4356;49.068;8.658;2022-12-22T04:11:05;99050.22;;;17.26;38.41
8637;BME280;4356;49.068;8.658;2022-12-22T04:13:49;99046.19;;;17.28;38.39
8637;BME280;4356;49.068;8.658;2022-12-22T04:16:15;99049.13;;;17.27;38.30
8637;BME280;4356;49.068;8.658;2022-12-22T04:18:41;99047.50;;;17.26;38.15
8637;BME280;4356;49.068;8.658;2022-12-22T04:21:06;99047.25;;;17.27;38.68
8637;BME280;4356;49.068;8.658;2022-12-22T04:23:32;99041.22;;;17.25;38.64
8637;BME280;4356;49.068;8.658;2022-12-22T04:25:58;99039.59;;;17.24;38.50
8637;BME280;4356;49.068;8.658;2022-12-22T04:28:24;99033.44;;;17.29;38.53
8637;BME280;4356;49.068;8.658;2022-12-22T04:30:50;99032.84;;;17.27;38.49
8637;BME280;4356;49.068;8.658;2022-12-22T04:33:16;99008.41;;;17.15;38.48
8637;BME280;4356;49.068;8.658;2022-12-22T04:35:43;99011.72;;;17.17;38.26
8637;BME280;4356;49.068;8.658;2022-12-22T04:38:08;99010.66;;;17.18;38.19
8637;BME280;4356;49.068;8.658;2022-12-22T04:40:34;99016.44;;;17.22;38.52
8637;BME280;4356;49.068;8.658;2022-12-22T04:43:00;99012.66;;;17.23;38.68
8637;BME280;4356;49.068;8.658;2022-12-22T04:45:26;99001.91;;;17.16;38.57
8637;BME280;4356;49.068;8.658;2022-12-22T04:47:51;98989.84;;;17.12;38.19
8637;BME280;4356;49.068;8.658;2022-12-22T04:50:17;98994.84;;;17.15;38.67
8637;BME280;4356;49.068;8.658;2022-12-22T04:52:43;98998.50;;;17.21;39.10
8637;BME280;4356;49.068;8.658;2022-12-22T04:55:08;99000.03;;;17.17;38.95
8637;BME280;4356;49.068;8.658;2022-12-22T04:57:34;99005.56;;;17.22;39.36
8637;BME280;4356;49.068;8.658;2022-12-22T05:00:00;99004.16;;;17.19;38.92
8637;BME280;4356;49.068;8.658;2022-12-22T05:02:26;99006.66;;;17.21;39.23
8637;BME280;4356;49.068;8.658;2022-12-22T05:04:52;98994.34;;;17.18;39.03
8637;BME280;4356;49.068;8.658;2022-12-22T05:07:17;99002.88;;;17.22;39.50
8637;BME280;4356;49.068;8.658;2022-12-22T05:09:45;99002.03;;;17.21;39.00
8637;BME280;4356;49.068;8.658;2022-12-22T05:12:10;98992.47;;;17.19;38.82
8637;BME280;4356;49.068;8.658;2022-12-22T05:14:55;98986.81;;;17.20;38.90
8637;BME280;4356;49.068;8.658;2022-12-22T05:17:21;98991.41;;;17.20;38.63
8637;BME280;4356;49.068;8.658;2022-12-22T05:19:46;98990.81;;;17.18;38.81
8637;BME280;4356;49.068;8.658;2022-12-22T05:22:12;99008.53;;;17.20;39.43
8637;BME280;4356;49.068;8.658;2022-12-22T05:24:38;98995.19;;;17.19;38.98
8637;BME280;4356;49.068;8.658;2022-12-22T05:27:04;98985.84;;;17.15;38.72
8637;BME280;4356;49.068;8.658;2022-12-22T05:29:30;98977.47;;;17.16;38.80
8637;BME280;4356;49.068;8.658;2022-12-22T05:31:55;98981.88;;;17.17;38.86
8637;BME280;4356;49.068;8.658;2022-12-22T05:34:21;98967.09;;;17.13;38.62
8637;BME280;4356;49.068;8.658;2022-12-22T05:36:47;98977.13;;;17.13;38.76
8637;BME280;4356;49.068;8.658;2022-12-22T05:39:12;98977.72;;;17.15;38.93
8637;BME280;4356;49.068;8.658;2022-12-22T05:41:38;98979.16;;;17.17;38.90
8637;BME280;4356;49.068;8.658;2022-12-22T05:44:04;98985.84;;;17.15;39.12
8637;BME280;4356;49.068;8.658;2022-12-22T05:46:29;98983.16;;;17.15;39.02
8637;BME280;4356;49.068;8.658;2022-12-22T05:48:55;98981.72;;;17.12;39.40
8637;BME280;4356;49.068;8.658;2022-12-22T05:51:21;98974.66;;;17.11;39.30
8637;BME280;4356;49.068;8.658;2022-12-22T05:53:46;98974.41;;;17.13;39.01
8637;BME280;4356;49.068;8.658;2022-12-22T05:56:12;98971.34;;;17.09;39.48
8637;BME280;4356;49.068;8.658;2022-12-22T05:58:38;98968.13;;;17.12;38.81
8637;BME280;4356;49.068;8.658;2022-12-22T06:01:04;98969.22;;;17.11;38.87
8637;BME280;4356;49.068;8.658;2022-12-22T06:03:30;98971.56;;;17.08;38.88
8637;BME280;4356;49.068;8.658;2022-12-22T06:05:57;98987.63;;;17.09;39.00
8637;BME280;4356;49.068;8.658;2022-12-22T06:08:23;98985.97;;;17.08;39.50
8637;BME280;4356;49.068;8.658;2022-12-22T06:10:49;98994.94;;;17.09;39.74
8637;BME280;4356;49.068;8.658;2022-12-22T06:13:15;98966.84;;;17.03;39.77
8637;BME280;4356;49.068;8.658;2022-12-22T06:15:40;98986.91;;;17.14;39.71
8637;BME280;4356;49.068;8.658;2022-12-22T06:18:06;98971.94;;;17.11;39.21
8637;BME280;4356;49.068;8.658;2022-12-22T06:20:32;98960.00;;;17.12;39.00
8637;BME280;4356;49.068;8.658;2022-12-22T06:22:57;98983.50;;;17.18;39.73
8637;BME280;4356;49.068;8.658;2022-12-22T06:25:23;98982.22;;;17.21;39.53
8637;BME280;4356;49.068;8.658;2022-12-22T06:27:49;98981.97;;;17.22;39.17
8637;BME280;4356;49.068;8.658;2022-12-22T06:30:15;98991.06;;;17.28;38.92
8637;BME280;4356;49.068;8.658;2022-12-22T06:32:41;98983.72;;;17.28;39.06
8637;BME280;4356;49.068;8.658;2022-12-22T06:35:07;98979.25;;;17.34;39.27
8637;BME280;4356;49.068;8.658;2022-12-22T06:37:34;98980.66;;;17.36;40.05
8637;BME280;4356;49.068;8.658;2022-12-22T06:40:00;98971.69;;;17.36;39.69
8637;BME280;4356;49.068;8.658;2022-12-22T06:42:26;98976.44;;;17.40;39.17
8637;BME280;4356;49.068;8.658;2022-12-22T06:45:10;98962.84;;;17.40;39.54
8637;BME280;4356;49.068;8.658;2022-12-22T06:47:35;98971.34;;;17.44;39.43
8637;BME280;4356;49.068;8.658;2022-12-22T06:50:01;98978.91;;;17.42;39.23
8637;BME280;4356;49.068;8.658;2022-12-22T06:52:27;98989.03;;;17.46;38.81
8637;BME280;4356;49.068;8.658;2022-12-22T06:54:52;98990.75;;;17.48;38.77
8637;BME280;4356;49.068;8.658;2022-12-22T06:57:18;98999.25;;;17.51;39.00
8637;BME280;4356;49.068;8.658;2022-12-22T06:59:44;98991.75;;;17.46;39.49
8637;BME280;4356;49.068;8.658;2022-12-22T07:02:13;98993.31;;;17.54;39.31
8637;BME280;4356;49.068;8.658;2022-12-22T07:04:39;98997.47;;;17.57;39.33
8637;BME280;4356;49.068;8.658;2022-12-22T07:07:05;98995.59;;;17.57;39.08
8637;BME280;4356;49.068;8.658;2022-12-22T07:09:31;98982.44;;;17.54;39.35
8637;BME280;4356;49.068;8.658;2022-12-22T07:11:56;98975.88;;;17.50;38.94
8637;BME280;4356;49.068;8.658;2022-12-22T07:14:22;98986.59;;;17.57;39.22
8637;BME280;4356;49.068;8.658;2022-12-22T07:16:48;98993.66;;;17.58;39.41
8637;BME280;4356;49.068;8.658;2022-12-22T07:19:14;98996.97;;;17.60;39.33
8637;BME280;4356;49.068;8.658;2022-12-22T07:21:40;99004.44;;;17.64;39.44
8637;BME280;4356;49.068;8.658;2022-12-22T07:24:07;98999.09;;;17.58;39.68
8637;BME280;4356;49.068;8.658;2022-12-22T07:26:33;99001.47;;;17.66;39.42
8637;BME280;4356;49.068;8.658;2022-12-22T07:28:58;98994.63;;;17.63;39.46
8637;BME280;4356;49.068;8.658;2022-12-22T07:31:24;98999.59;;;17.66;39.01
8637;BME280;4356;49.068;8.658;2022-12-22T07:33:50;98996.38;;;17.69;39.49
8637;BME280;4356;49.068;8.658;2022-12-22T07:36:18;99007.00;;;17.71;39.47
8637;BME280;4356;49.068;8.658;2022-12-22T07:38:48;99010.31;;;17.73;39.19
8637;BME280;4356;49.068;8.658;2022-12-22T07:41:16;99004.66;;;17.74;39.02
8637;BME280;4356;49.068;8.658;2022-12-22T07:44:01;99014.69;;;17.74;39.24
8637;BME280;4356;49.068;8.658;2022-12-22T07:46:30;99003.81;;;17.74;39.32
8637;BME280;4356;49.068;8.658;2022-12-22T07:49:04;98988.09;;;17.76;39.21
8637;BME280;4356;49.068;8.658;2022-12-22T07:51:50;98998.75;;;17.77;39.18
8637;BME280;4356;49.068;8.658;2022-12-22T07:54:16;98987.63;;;17.79;38.97
8637;BME280;4356;49.068;8.658;2022-12-22T07:56:44;98979.50;;;17.79;39.14
8637;BME280;4356;49.068;8.658;2022-12-22T07:59:11;98987.41;;;17.80;39.34
8637;BME280;4356;49.068;8.658;2022-12-22T08:01:37;98975.69;;;17.80;39.38
8637;BME280;4356;49.068;8.658;2022-12-22T08:04:05;98982.78;;;17.81;39.95
8637;BME280;4356;49.068;8.658;2022-12-22T08:06:32;98982.91;;;17.86;39.50
8637;BME280;4356;49.068;8.658;2022-12-22T08:08:59;98988.09;;;17.87;39.44
8637;BME280;4356;49.068;8.658;2022-12-22T08:11:24;98985.97;;;17.89;39.54
8637;BME280;4356;49.068;8.658;2022-12-22T08:13:50;98976.47;;;17.92;39.18
8637;BME280;4356;49.068;8.658;2022-12-22T08:16:16;98989.84;;;17.93;39.08
8637;BME280;4356;49.068;8.658;2022-12-22T08:18:42;98983.81;;;17.91;38.69
8637;BME280;4356;49.068;8.658;2022-12-22T08:21:09;98991.00;;;17.97;38.63
8637;BME280;4356;49.068;8.658;2022-12-22T08:23:35;99004.13;;;18.00;39.00
8637;BME280;4356;49.068;8.658;2022-12-22T08:26:14;99014.41;;;17.98;39.62
8637;BME280;4356;49.068;8.658;2022-12-22T08:28:52;99009.09;;;18.03;38.72
8637;BME280;4356;49.068;8.658;2022-12-22T08:31:21;99010.00;;;18.09;38.37
8637;BME280;4356;49.068;8.658;2022-12-22T08:33:48;99020.88;;;18.20;38.43
8637;BME280;4356;49.068;8.658;2022-12-22T08:36:14;99002.84;;;18.31;38.06
8637;BME280;4356;49.068;8.658;2022-12-22T08:38:41;99006.25;;;18.50;38.13
8637;BME280;4356;49.068;8.658;2022-12-22T08:41:12;99022.38;;;18.68;37.42
8637;BME280;4356;49.068;8.658;2022-12-22T08:43:39;99029.75;;;18.84;37.22
8637;BME280;4356;49.068;8.658;2022-12-22T08:46:05;99016.28;;;18.94;37.43
8637;BME280;4356;49.068;8.658;2022-12-22T08:48:31;99014.34;;;19.06;37.49
8637;BME280;4356;49.068;8.658;2022-12-22T08:50:57;99014.69;;;19.09;37.35
8637;BME280;4356;49.068;8.658;2022-12-22T08:53:23;99013.50;;;19.05;37.43
8637;BME280;4356;49.068;8.658;2022-12-22T08:55:53;99005.94;;;19.07;37.84
8637;BME280;4356;49.068;8.658;2022-12-22T08:58:21;99018.72;;;19.07;37.91
8637;BME280;4356;49.068;8.658;2022-12-22T09:00:47;99021.19;;;19.08;37.84
8637;BME280;4356;49.068;8.658;2022-12-22T09:03:13;99032.56;;;19.05;38.01
8637;BME280;4356;49.068;8.658;2022-12-22T09:05:39;99035.56;;;19.04;38.14
8637;BME280;4356;49.068;8.658;2022-12-22T09:08:06;99046.44;;;19.04;38.03
8637;BME280;4356;49.068;8.658;2022-12-22T09:10:32;99037.63;;;18.97;37.89
8637;BME280;4356;49.068;8.658;2022-12-22T09:12:58;99024.22;;;18.95;38.16
8637;BME280;4356;49.068;8.658;2022-12-22T09:15:24;99047.91;;;18.95;38.34
8637;BME280;4356;49.068;8.658;2022-12-22T09:17:49;99048.06;;;18.88;38.28
8637;BME280;4356;49.068;8.658;2022-12-22T09:20:15;99050.34;;;18.80;38.46
8637;BME280;4356;49.068;8.658;2022-12-22T09:22:41;99033.53;;;18.83;38.59
8637;BME280;4356;49.068;8.658;2022-12-22T09:25:07;99061.81;;;18.82;38.71
8637;BME280;4356;49.068;8.658;2022-12-22T09:27:33;99068.09;;;18.82;38.51
8637;BME280;4356;49.068;8.658;2022-12-22T09:29:59;99087.38;;;18.81;38.51
8637;BME280;4356;49.068;8.658;2022-12-22T09:32:26;99081.13;;;18.80;38.54
8637;BME280;4356;49.068;8.658;2022-12-22T09:34:52;99102.56;;;18.77;38.63
8637;BME280;4356;49.068;8.658;2022-12-22T09:37:18;99086.13;;;18.72;38.66
8637;BME280;4356;49.068;8.658;2022-12-22T09:39:44;99098.66;;;18.73;38.67
8637;BME280;4356;49.068;8.658;2022-12-22T09:42:17;99097.50;;;18.69;39.16
8637;BME280;4356;49.068;8.658;2022-12-22T09:44:46;99098.91;;;18.71;38.86
8637;BME280;4356;49.068;8.658;2022-12-22T09:47:31;99100.81;;;18.71;38.98
8637;BME280;4356;49.068;8.658;2022-12-22T09:50:01;99091.13;;;18.63;39.06
8637;BME280;4356;49.068;8.658;2022-12-22T09:52:40;99103.44;;;18.66;38.96
8637;BME280;4356;49.068;8.658;2022-12-22T09:55:37;99098.25;;;18.64;38.93
8637;BME280;4356;49.068;8.658;2022-12-22T10:07:23;99116.09;;;18.60;39.82
8637;BME280;4356;49.068;8.658;2022-12-22T10:09:30;99128.28;;;18.58;39.99
8637;BME280;4356;49.068;8.658;2022-12-22T10:12:02;99122.59;;;18.59;39.28
8637;BME280;4356;49.068;8.658;2022-12-22T10:14:35;99115.53;;;18.58;39.25
8637;BME280;4356;49.068;8.658;2022-12-22T10:17:26;99128.53;;;18.56;39.20
8637;BME280;4356;49.068;8.658;2022-12-22T10:20:29;99126.91;;;18.55;39.21
8637;BME280;4356;49.068;8.658;2022-12-22T10:23:03;99115.19;;;18.55;39.58
8637;BME280;4356;49.068;8.658;2022-12-22T10:25:42;99116.81;;;18.56;39.79
8637;BME280;4356;49.068;8.658;2022-12-22T10:28:24;99115.88;;;18.50;41.08
8637;BME280;4356;49.068;8.658;2022-12-22T10:31:14;99114.69;;;18.58;40.01
8637;BME280;4356;49.068;8.658;2022-12-22T10:33:41;99101.13;;;18.46;39.94
8637;BME280;4356;49.068;8.658;2022-12-22T10:36:07;99136.94;;;18.55;39.60
8637;BME280;4356;49.068;8.658;2022-12-22T10:38:37;99114.69;;;18.58;41.08
8637;BME280;4356;49.068;8.658;2022-12-22T10:41:17;99124.38;;;18.54;40.72
8637;BME280;4356;49.068;8.658;2022-12-22T10:43:53;99134.81;;;18.57;40.46
8637;BME280;4356;49.068;8.658;2022-12-22T10:46:32;99119.41;;;18.62;40.23
8637;BME280;4356;49.068;8.658;2022-12-22T10:49:22;99137.13;;;18.76;39.79
8637;BME280;4356;49.068;8.658;2022-12-22T10:51:55;99128.53;;;18.84;39.07
8637;BME280;4356;49.068;8.658;2022-12-22T10:59:48;99137.97;;;19.21;38.78
8637;BME280;4356;49.068;8.658;2022-12-22T11:04:52;99123.88;;;19.24;38.08
8637;BME280;4356;49.068;8.658;2022-12-22T11:07:20;99123.91;;;19.41;38.03
8637;BME280;4356;49.068;8.658;2022-12-22T11:09:45;99113.03;;;19.41;38.47
8637;BME280;4356;49.068;8.658;2022-12-22T11:12:39;99133.75;;;19.59;38.88
8637;BME280;4356;49.068;8.658;2022-12-22T11:15:38;99129.22;;;19.64;38.02
8637;BME280;4356;49.068;8.658;2022-12-22T11:26:19;99120.88;;;19.71;38.24
8637;BME280;4356;49.068;8.658;2022-12-22T11:29:04;99130.78;;;19.77;38.21
8637;BME280;4356;49.068;8.658;2022-12-22T11:42:49;99150.88;;;19.87;37.90
8637;BME280;4356;49.068;8.658;2022-12-22T11:48:27;99170.28;;;19.91;38.05
8637;BME280;4356;49.068;8.658;2022-12-22T11:56:39;99180.94;;;19.92;38.02
8637;BME280;4356;49.068;8.658;2022-12-22T11:59:27;99194.16;;;20.00;38.43
8637;BME280;4356;49.068;8.658;2022-12-22T12:07:39;99203.81;;;20.08;38.13
8637;BME280;4356;49.068;8.658;2022-12-22T12:10:25;99208.78;;;20.11;38.35
8637;BME280;4356;49.068;8.658;2022-12-22T12:13:05;99217.19;;;20.09;38.41
8637;BME280;4356;49.068;8.658;2022-12-22T12:15:53;99226.28;;;20.15;38.71
8637;BME280;4356;49.068;8.658;2022-12-22T12:23:40;99246.34;;;20.20;38.40
8637;BME280;4356;49.068;8.658;2022-12-22T12:31:36;99254.19;;;20.33;38.33
8637;BME280;4356;49.068;8.658;2022-12-22T12:34:04;99255.34;;;20.37;38.34
8637;BME280;4356;49.068;8.658;2022-12-22T12:36:49;99272.38;;;20.44;38.26
8637;BME280;4356;49.068;8.658;2022-12-22T12:42:32;99271.47;;;20.56;37.73
8637;BME280;4356;49.068;8.658;2022-12-22T12:44:59;99268.47;;;20.57;37.37
8637;BME280;4356;49.068;8.658;2022-12-22T12:47:32;99270.47;;;20.62;38.79
8637;BME280;4356;49.068;8.658;2022-12-22T12:50:30;99298.88;;;20.66;38.39
8637;BME280;4356;49.068;8.658;2022-12-22T12:55:25;99296.91;;;20.78;38.01
8637;BME280;4356;49.068;8.658;2022-12-22T12:57:56;99294.81;;;20.85;38.16
8637;BME280;4356;49.068;8.658;2022-12-22T13:02:58;99291.00;;;21.02;37.40
8637;BME280;4356;49.068;8.658;2022-12-22T13:05:49;99302.63;;;21.14;37.84
8637;BME280;4356;49.068;8.658;2022-12-22T13:08:26;99304.09;;;21.22;37.49
8637;BME280;4356;49.068;8.658;2022-12-22T13:23:37;99316.50;;;21.78;36.51
8637;BME280;4356;49.068;8.658;2022-12-22T13:26:19;99332.22;;;21.87;36.45
8637;BME280;4356;49.068;8.658;2022-12-22T13:31:43;99331.25;;;21.98;35.87
8637;BME280;4356;49.068;8.658;2022-12-22T13:34:35;99338.75;;;22.08;36.09
8637;BME280;4356;49.068;8.658;2022-12-22T13:37:21;99331.69;;;22.12;35.95
8637;BME280;4356;49.068;8.658;2022-12-22T13:40:19;99322.09;;;22.14;35.86
8637;BME280;4356;49.068;8.658;2022-12-22T13:42:50;99339.94;;;22.17;36.11
8637;BME280;4356;49.068;8.658;2022-12-22T13:45:35;99327.84;;;22.13;36.15
8637;BME280;4356;49.068;8.658;2022-12-22T13:48:25;99323.66;;;22.05;36.20
8637;BME280;4356;49.068;8.658;2022-12-22T13:50:59;99331.81;;;22.00;36.44
8637;BME280;4356;49.068;8.658;2022-12-22T13:53:37;99321.28;;;21.87;36.48
8637;BME280;4356;49.068;8.658;2022-12-22T13:56:07;99319.19;;;21.73;36.52
8637;BME280;4356;49.068;8.658;2022-12-22T13:58:39;99330.44;;;21.76;36.85
8637;BME280;4356;49.068;8.658;2022-12-22T14:03:38;99327.28;;;21.63;37.16
8637;BME280;4356;49.068;8.658;2022-12-22T14:06:29;99322.00;;;21.56;37.77
8637;BME280;4356;49.068;8.658;2022-12-22T14:11:55;99306.50;;;21.40;38.07
8637;BME280;4356;49.068;8.658;2022-12-22T14:14:47;99307.53;;;21.34;37.87
8637;BME280;4356;49.068;8.658;2022-12-22T14:20:19;99312.84;;;21.24;38.78
8637;BME280;4356;49.068;8.658;2022-12-22T14:23:16;99317.16;;;21.20;38.69
8637;BME280;4356;49.068;8.658;2022-12-22T14:25:48;99317.13;;;21.15;38.36
8637;BME280;4356;49.068;8.658;2022-12-22T14:28:18;99315.16;;;21.10;38.55
8637;BME280;4356;49.068;8.658;2022-12-22T14:30:49;99315.31;;;21.04;38.66
8637;BME280;4356;49.068;8.658;2022-12-22T14:35:51;99316.09;;;20.99;38.65
8637;BME280;4356;49.068;8.658;2022-12-22T14:38:22;99313.50;;;20.93;38.79
8637;BME280;4356;49.068;8.658;2022-12-22T14:40:50;99311.28;;;20.90;38.76
8637;BME280;4356;49.068;8.658;2022-12-22T14:45:47;99305.69;;;20.80;38.78
8637;BME280;4356;49.068;8.658;2022-12-22T14:48:33;99322.13;;;20.85;39.24
8637;BME280;4356;49.068;8.658;2022-12-22T14:51:00;99317.66;;;20.79;38.58
8637;BME280;4356;49.068;8.658;2022-12-22T14:53:38;99321.22;;;20.79;39.07
8637;BME280;4356;49.068;8.658;2022-12-22T14:56:12;99320.31;;;20.74;38.47
8637;BME280;4356;49.068;8.658;2022-12-22T14:58:40;99319.75;;;20.72;38.97
8637;BME280;4356;49.068;8.658;2022-12-22T15:01:16;99314.22;;;20.67;39.19
8637;BME280;4356;49.068;8.658;2022-12-22T15:06:33;99302.38;;;20.61;38.85
8637;BME280;4356;49.068;8.658;2022-12-22T15:11:35;99303.97;;;20.57;39.01
8637;BME280;4356;49.068;8.658;2022-12-22T15:14:02;99316.53;;;20.58;38.84
8637;BME280;4356;49.068;8.658;2022-12-22T15:16:29;99318.69;;;20.56;39.22
8637;BME280;4356;49.068;8.658;2022-12-22T15:18:56;99323.56;;;20.54;39.32
8637;BME280;4356;49.068;8.658;2022-12-22T15:21:21;99318.84;;;20.49;39.01
8637;BME280;4356;49.068;8.658;2022-12-22T15:23:47;99322.41;;;20.50;39.01
8637;BME280;4356;49.068;8.658;2022-12-22T15:26:13;99323.97;;;20.46;39.03
8637;BME280;4356;49.068;8.658;2022-12-22T15:28:39;99328.06;;;20.43;39.10
8637;BME280;4356;49.068;8.658;2022-12-22T15:31:11;99337.28;;;20.42;39.10
8637;BME280;4356;49.068;8.658;2022-12-22T15:33:39;99334.22;;;20.39;38.94
8637;BME280;4356;49.068;8.658;2022-12-22T15:36:08;99346.78;;;20.40;39.00
8637;BME280;4356;49.068;8.658;2022-12-22T15:38:34;99339.63;;;20.34;39.03
8637;BME280;4356;49.068;8.658;2022-12-22T15:41:03;99336.56;;;20.30;38.94
8637;BME280;4356;49.068;8.658;2022-12-22T15:43:28;99329.09;;;20.26;38.65
8637;BME280;4356;49.068;8.658;2022-12-22T15:45:54;99334.41;;;20.32;38.98
8637;BME280;4356;49.068;8.658;2022-12-22T15:48:40;99332.25;;;20.34;39.19
8637;BME280;4356;49.068;8.658;2022-12-22T15:51:12;99326.44;;;20.31;39.00
8637;BME280;4356;49.068;8.658;2022-12-22T15:53:39;99324.47;;;20.26;38.88
8637;BME280;4356;49.068;8.658;2022-12-22T15:56:11;99317.59;;;20.24;38.76